• Join FlightAware (Why Join?)
  • Login
  • US Flag 
03:41AM EDT


 

Airport Tracker/Info


-or-


 

Live Flight TrackerFlight Track Log ✈ EJA907 ✈ 06-Oct-2013 ✈ KPTK - KBRD

Flight Track Log - Related Links

Times and Time Zones

All times are in EDT time to prevent confusion due to time zone crossing. See the EJA907 flight status page for this flight to view local times or setup timezone preferences in your user account.

Time Position Orientation Groundspeed Altitude Reporting Facility
EDT Latitude Longitude Course Direction KTS MPH feet Rate Location/Type
05:07PM 42.6683 -83.4867 278° West 225 259 3,400  Level Cleveland Center
05:07PM 42.6725 -83.4956 303° West 269 310 3,800 2,520 Climbing Cleveland Center
05:08PM 42.7528 -83.4911 North 285 328 6,700 2,760 Climbing Cleveland Center
05:09PM 42.8297 -83.4406 26° Northeast 301 346 9,600 3,000 Climbing Cleveland Center
05:10PM 42.9028 -83.3725 34° Northeast 311 358 12,900 2,280 Climbing Cleveland Center
05:11PM 43.0086 -83.3675 North 390 449 14,400 1,500 Climbing Cleveland Center
05:12PM 43.1211 -83.3967 349° North 425 489 16,100 1,920 Climbing Cleveland Center
05:13PM 43.2286 -83.4667 335° Northwest 430 495 18,400 2,040 Climbing Cleveland Center
05:14PM 43.3369 -83.5344 336° Northwest 429 494 20,400 2,100 Climbing Cleveland Center
05:15PM 43.4678 -83.6344 331° Northwest 448 516 22,800 2,100 Climbing Cleveland Center
05:16PM 43.5094 -83.7172 305° West 430 495 24,100 1,920 Climbing Minneapolis Center
05:17PM 43.5456 -83.8619 289° West 406 467 26,100 1,920 Climbing Minneapolis Center
05:18PM 43.5831 -84.0094 289° West 408 470 28,100 1,920 Climbing Minneapolis Center
05:19PM 43.6217 -84.1578 290° West 412 474 30,100 1,800 Climbing Minneapolis Center
05:20PM 43.6583 -84.3097 288° West 416 479 31,900 1,980 Climbing Minneapolis Center
05:21PM 43.7053 -84.4947 289° West 423 487 34,200 1,500 Climbing Minneapolis Center
05:22PM 43.7450 -84.6508 289° West 429 494 35,000 1,080 Climbing Minneapolis Center
05:23PM 43.7858 -84.8192 289° West 451 519 36,500 1,440 Climbing Minneapolis Center
05:24PM 43.8286 -84.9908 289° West 467 537 38,000 1,380 Climbing Minneapolis Center
05:25PM 43.8706 -85.1617 289° West 471 542 39,400 960 Climbing Minneapolis Center
05:26PM 43.9197 -85.3672 288° West 471 542 40,000 240 Climbing Minneapolis Center
05:27PM 43.9678 -85.5400 291° West 478 550 40,000  Level Minneapolis Center
05:28PM 44.0267 -85.7139 295° West 494 568 40,000  Level Minneapolis Center
05:29PM 44.0825 -85.8856 294° West 493 567 40,000  Level Minneapolis Center
05:30PM 44.1458 -86.0819 294° West 485 558 40,000  Level Minneapolis Center
05:31PM 44.2014 -86.2514 295° West 481 554 40,000  Level Minneapolis Center
05:32PM 44.2561 -86.4214 294° West 479 551 40,000  Level Minneapolis Center
05:33PM 44.3106 -86.5931 294° West 481 554 40,000  Level Minneapolis Center
05:34PM 44.3628 -86.7639 293° West 478 550 40,000  Level Minneapolis Center
05:35PM 44.4172 -86.9361 294° West 480 552 40,000  Level Minneapolis Center
05:36PM 44.4836 -87.1472 294° West 489 563 40,000  Level Minneapolis Center
05:37PM 44.5392 -87.3261 294° West 495 570 40,000  Level Minneapolis Center
05:39PM 44.5956 -87.5047 294° West 499 574 40,000  Level Minneapolis Center
05:40PM 44.6506 -87.6853 293° West 503 579 40,000  Level Minneapolis Center
05:41PM 44.7050 -87.8661 293° West 503 579 40,000  Level Minneapolis Center
05:42PM 44.7592 -88.0472 293° West 503 579 40,000  Level Minneapolis Center
05:43PM 44.8139 -88.2303 293° West 508 585 40,000  Level Minneapolis Center
05:44PM 44.8797 -88.4519 293° West 508 585 40,000  Level Minneapolis Center
05:45PM 44.9328 -88.6331 293° West 504 580 40,000  Level Minneapolis Center
05:46PM 44.9872 -88.8153 293° West 505 581 40,000  Level Minneapolis Center
05:47PM 45.0394 -88.9983 292° West 506 582 40,000  Level Minneapolis Center
05:48PM 45.0997 -89.2111 292° West 506 582 40,000  Level Minneapolis Center
05:49PM 45.1528 -89.3972 292° West 507 583 40,000  Level Minneapolis Center
05:50PM 45.2056 -89.5847 292° West 509 586 40,000  Level Minneapolis Center
05:51PM 45.2592 -89.7731 292° West 512 589 40,000  Level Minneapolis Center
05:52PM 45.3111 -89.9628 291° West 512 589 40,000  Level Minneapolis Center
05:53PM 45.3644 -90.1519 292° West 514 592 40,000  Level Minneapolis Center
05:54PM 45.4161 -90.3417 291° West 513 590 40,000  Level Minneapolis Center
05:55PM 45.4778 -90.5686 291° West 512 589 40,000  Level Minneapolis Center
05:56PM 45.5294 -90.7594 291° West 515 593 40,000  Level Minneapolis Center
05:57PM 45.5794 -90.9500 291° West 513 590 40,000  Level Minneapolis Center
05:58PM 45.6308 -91.1400 291° West 513 590 40,000  Level Minneapolis Center
05:59PM 45.6800 -91.3283 291° West 510 587 40,000  Level Minneapolis Center
06:00PM 45.7297 -91.5186 291° West 509 586 40,000 -600 Level Minneapolis Center
06:01PM 45.7792 -91.7103 290° West 509 586 38,800 -2,160 Descending Minneapolis Center
06:02PM 45.8375 -91.9386 290° West 511 588 35,600 -2,880 Descending Minneapolis Center
06:03PM 45.8875 -92.1278 291° West 510 587 32,900 -2,580 Descending Minneapolis Center
06:04PM 45.9342 -92.3133 290° West 503 579 30,300 -2,520 Descending Minneapolis Center
06:05PM 45.9794 -92.4969 290° West 497 572 27,700 -2,700 Descending Minneapolis Center
06:06PM 46.0253 -92.6786 290° West 489 563 24,800 -3,120 Descending Minneapolis Center
06:07PM 46.0756 -92.8850 289° West 467 537 21,300 -3,600 Descending Minneapolis Center
06:09PM 46.1181 -93.0606 289° West 465 535 17,400 -3,180 Descending Minneapolis Center
06:10PM 46.1561 -93.2225 289° West 451 519 14,800 -2,520 Descending Minneapolis Center
06:11PM 46.1925 -93.3733 289° West 424 488 12,300 -2,460 Descending Minneapolis Center
06:12PM 46.2281 -93.5233 289° West 385 443 9,800 -1,680 Descending Minneapolis Center
06:13PM 46.2536 -93.6278 290° West 313 360 8,800 -1,440 Descending Minneapolis Center
06:14PM 46.2783 -93.7297 289° West 279 321 6,900 -1,800 Descending Minneapolis Center
06:15PM 46.3022 -93.8294 289° West 269 310 5,200 -960 Descending Minneapolis Center
06:16PM 46.3250 -93.9300 288° West 264 304 5,000 -240 Descending Minneapolis Center